createdAt,value
2022-08-07T00:01:44.099Z,6.20
2022-08-07T00:04:15.536Z,7.43
2022-08-07T00:06:52.473Z,6.30
2022-08-07T00:09:23.450Z,9.75
2022-08-07T00:11:58.742Z,6.85
2022-08-07T00:14:30.436Z,3.80
2022-08-07T00:17:02.636Z,5.47
2022-08-07T00:20:00.536Z,6.43
2022-08-07T00:22:24.583Z,7.30
2022-08-07T00:25:15.800Z,5.90
2022-08-07T00:27:53.274Z,6.35
2022-08-07T00:30:27.620Z,12.02
2022-08-07T00:33:00.470Z,6.95
2022-08-07T00:35:29.901Z,7.63
2022-08-07T00:37:59.081Z,5.93
2022-08-07T00:40:39.916Z,8.00
2022-08-07T00:43:58.580Z,6.20
2022-08-07T00:45:57.800Z,5.82
2022-08-07T00:48:32.052Z,9.68
2022-08-07T00:51:01.131Z,4.78
2022-08-07T00:53:39.281Z,4.82
2022-08-07T00:56:17.246Z,5.88
2022-08-07T00:58:46.697Z,6.18
2022-08-07T01:01:15.560Z,4.80
2022-08-07T01:03:56.253Z,5.85
2022-08-07T01:06:28.875Z,4.80
2022-08-07T01:08:58.557Z,5.07
2022-08-07T01:12:23.576Z,5.88
2022-08-07T01:14:21.108Z,4.50
2022-08-07T01:16:56.124Z,6.40
2022-08-07T01:19:23.702Z,4.13
2022-08-07T01:21:53.487Z,4.80
2022-08-07T01:24:23.980Z,4.50
2022-08-07T01:26:52.452Z,5.68
2022-08-07T01:29:23.574Z,5.38
2022-08-07T01:31:55.813Z,7.15
2022-08-07T01:34:31.417Z,5.68
2022-08-07T01:36:59.425Z,4.47
2022-08-07T01:39:39.742Z,5.80
2022-08-07T01:42:39.236Z,5.35
2022-08-07T01:45:15.755Z,6.07
2022-08-07T01:48:19.024Z,5.32
2022-08-07T01:50:43.274Z,4.10
2022-08-07T01:53:20.870Z,5.13
2022-08-07T01:56:06.691Z,5.10
2022-08-07T01:58:41.071Z,5.00
2022-08-07T02:01:37.685Z,4.93
2022-08-07T02:04:14.086Z,4.90
2022-08-07T02:06:45.912Z,4.28
2022-08-07T02:09:51.605Z,4.72
2022-08-07T02:12:17.821Z,7.20
2022-08-07T02:14:51.840Z,4.72
2022-08-07T02:17:27.649Z,4.45
2022-08-07T02:20:04.739Z,7.68
2022-08-07T02:22:38.411Z,4.07
2022-08-07T02:25:13.893Z,4.20
2022-08-07T02:27:52.019Z,5.78
2022-08-07T02:30:52.817Z,5.07
2022-08-07T02:33:57.208Z,5.60
2022-08-07T02:37:18.949Z,3.83
2022-08-07T02:41:36.984Z,5.50
2022-08-07T02:44:34.732Z,9.15
2022-08-07T02:47:45.091Z,7.10
2022-08-07T02:51:41.864Z,6.05
2022-08-07T03:10:53.570Z,8.45
2022-08-07T03:13:27.660Z,9.98
2022-08-07T03:21:12.358Z,6.07
2022-08-07T03:23:34.025Z,5.45
2022-08-07T03:38:29.907Z,5.65
2022-08-07T03:50:57.597Z,8.73
2022-08-07T04:23:43.870Z,5.20
2022-08-07T04:27:20.321Z,5.15
2022-08-07T04:33:43.073Z,5.20
2022-08-07T04:36:10.597Z,4.75
2022-08-07T04:38:40.931Z,5.22
2022-08-07T04:41:21.118Z,5.57
2022-08-07T04:44:10.064Z,4.30
2022-08-07T04:47:04.155Z,7.70
2022-08-07T04:49:47.452Z,4.80
2022-08-07T04:53:04.435Z,4.97
2022-08-07T04:58:23.668Z,4.85
2022-08-07T04:58:48.788Z,4.90
2022-08-07T05:01:45.287Z,4.03
2022-08-07T05:04:19.543Z,3.88
2022-08-07T05:07:20.711Z,4.53
2022-08-07T05:09:55.120Z,4.30
2022-08-07T05:12:46.296Z,3.92
2022-08-07T05:15:28.049Z,3.90
2022-08-07T05:18:08.747Z,4.07
2022-08-07T05:20:44.970Z,5.68
2022-08-07T05:23:20.015Z,4.22
2022-08-07T05:26:12.922Z,5.70
2022-08-07T05:28:50.530Z,4.32
2022-08-07T05:31:20.426Z,4.40
2022-08-07T05:34:00.993Z,5.18
2022-08-07T05:36:35.250Z,5.78
2022-08-07T05:39:09.207Z,4.22
2022-08-07T05:42:01.434Z,4.95
2022-08-07T05:44:35.414Z,8.68
2022-08-07T05:47:11.792Z,4.53
2022-08-07T05:49:50.017Z,4.35
2022-08-07T05:52:32.357Z,4.50
2022-08-07T05:55:10.158Z,4.80
2022-08-07T05:57:42.018Z,4.32
2022-08-07T06:00:16.480Z,4.80
2022-08-07T06:02:49.032Z,5.30
2022-08-07T06:05:19.694Z,5.00
2022-08-07T06:08:13.362Z,9.05
2022-08-07T06:10:44.503Z,5.60
2022-08-07T06:13:15.552Z,5.60
2022-08-07T06:15:44.691Z,6.93
2022-08-07T06:18:14.083Z,5.78
2022-08-07T06:20:50.994Z,5.38
2022-08-07T06:24:38.211Z,6.22
2022-08-07T06:26:27.459Z,5.72
2022-08-07T06:29:06.557Z,5.82
2022-08-07T06:31:47.124Z,6.03
2022-08-07T06:34:24.085Z,6.40
2022-08-07T06:37:02.604Z,6.28
2022-08-07T06:40:16.544Z,6.40
2022-08-07T06:42:33.110Z,6.05
2022-08-07T06:45:05.384Z,6.22
2022-08-07T06:47:48.263Z,5.93
2022-08-07T06:50:25.019Z,5.88
2022-08-07T06:52:55.855Z,5.60
2022-08-07T06:55:32.527Z,5.78
2022-08-07T06:58:17.493Z,5.85
2022-08-07T07:00:52.976Z,6.63
2022-08-07T07:03:39.564Z,5.50
2022-08-07T07:06:23.763Z,5.50
2022-08-07T07:08:54.108Z,5.78
2022-08-07T07:12:09.169Z,9.10
2022-08-07T07:14:15.474Z,6.15
2022-08-07T07:16:49.954Z,6.38
2022-08-07T07:19:55.526Z,5.60
2022-08-07T07:22:34.002Z,5.55
2022-08-07T07:26:32.287Z,5.68
2022-08-07T07:28:41.989Z,6.47
2022-08-07T07:31:17.220Z,7.47
2022-08-07T07:33:57.073Z,8.48
2022-08-07T07:36:32.450Z,6.05
2022-08-07T07:39:10.596Z,5.68
2022-08-07T07:42:01.983Z,6.03
2022-08-07T07:44:30.765Z,5.93
2022-08-07T07:47:15.970Z,5.93
2022-08-07T07:50:35.015Z,8.10
2022-08-07T07:52:42.741Z,6.00
2022-08-07T07:55:16.052Z,5.60
2022-08-07T07:57:53.275Z,5.18
2022-08-07T08:00:29.816Z,5.20
2022-08-07T08:03:16.693Z,7.25
2022-08-07T08:05:54.976Z,5.78
2022-08-07T08:08:35.185Z,12.85
2022-08-07T08:11:08.185Z,5.15
2022-08-07T08:13:54.929Z,6.38
2022-08-07T08:16:35.192Z,5.60
2022-08-07T08:20:19.142Z,6.93
2022-08-07T08:22:36.478Z,6.30
2022-08-07T08:25:43.023Z,8.57
2022-08-07T08:28:37.651Z,5.47
2022-08-07T08:31:22.671Z,5.38
2022-08-07T08:34:26.870Z,6.20
2022-08-07T08:37:00.521Z,4.75
2022-08-07T08:39:55.285Z,4.30
2022-08-07T08:42:51.576Z,4.35
2022-08-07T08:45:59.117Z,4.88
2022-08-07T08:49:33.351Z,6.97
2022-08-07T08:52:17.122Z,6.47
2022-08-07T08:54:53.402Z,4.72
2022-08-07T08:57:39.431Z,6.35
2022-08-07T09:00:09.062Z,6.57
2022-08-07T09:03:09.007Z,6.97
2022-08-07T09:05:43.384Z,4.90
2022-08-07T09:08:57.897Z,5.40
2022-08-07T09:11:50.574Z,4.00
2022-08-07T09:14:32.572Z,10.52
2022-08-07T09:17:59.586Z,5.85
2022-08-07T09:20:58.312Z,4.70
2022-08-07T09:24:32.813Z,4.25
2022-08-07T09:26:57.329Z,4.57
2022-08-07T09:30:03.930Z,5.95
2022-08-07T09:33:16.595Z,5.63
2022-08-07T09:36:27.043Z,3.63
2022-08-07T09:39:52.771Z,3.10
2022-08-07T09:42:33.277Z,3.67
2022-08-07T09:47:49.765Z,3.72
2022-08-07T09:48:29.611Z,3.53
2022-08-07T09:52:15.278Z,2.60
2022-08-07T09:54:35.923Z,3.97
2022-08-07T09:57:13.689Z,2.50
2022-08-07T10:00:18.775Z,3.13
2022-08-07T10:03:08.187Z,2.40
2022-08-07T10:06:05.388Z,2.70
2022-08-07T10:09:07.592Z,5.30
2022-08-07T10:12:01.779Z,5.70
2022-08-07T10:15:03.074Z,6.97
2022-08-07T10:18:02.604Z,4.32
2022-08-07T10:21:08.678Z,4.40
2022-08-07T10:25:09.252Z,3.97
2022-08-07T10:28:27.307Z,2.50
2022-08-07T10:35:09.106Z,3.42
2022-08-07T10:38:15.497Z,3.22
2022-08-07T10:41:51.366Z,4.45
2022-08-07T10:44:19.522Z,2.33
2022-08-07T10:47:11.842Z,3.13
2022-08-07T10:50:01.075Z,2.58
2022-08-07T10:53:05.124Z,3.28
2022-08-07T10:55:50.694Z,3.38
2022-08-07T10:58:59.905Z,3.03
2022-08-07T11:01:35.579Z,3.75
2022-08-07T11:04:45.557Z,2.25
2022-08-07T11:07:58.698Z,3.10
2022-08-07T11:10:57.799Z,1.90
2022-08-07T11:14:45.196Z,3.08
2022-08-07T11:16:46.953Z,2.10
2022-08-07T11:19:41.487Z,2.38
2022-08-07T11:22:26.733Z,3.38
2022-08-07T11:25:19.903Z,4.32
2022-08-07T11:28:02.870Z,3.20
2022-08-07T11:30:56.059Z,2.13
2022-08-07T11:33:53.711Z,2.78
2022-08-07T11:36:47.976Z,3.00
2022-08-07T11:39:59.780Z,3.33
2022-08-07T11:43:41.738Z,3.30
2022-08-07T11:46:31.603Z,2.13
2022-08-07T11:49:51.227Z,2.13
2022-08-07T11:52:14.242Z,1.50
2022-08-07T11:56:09.553Z,1.60
2022-08-07T11:58:17.299Z,3.75
2022-08-07T12:01:13.073Z,4.65
2022-08-07T12:04:46.622Z,1.85
2022-08-07T12:07:53.465Z,2.97
2022-08-07T12:11:08.182Z,3.72
2022-08-07T12:13:52.877Z,1.65
2022-08-07T12:16:30.119Z,1.48
2022-08-07T12:19:22.148Z,2.67
2022-08-07T12:26:29.127Z,2.10
2022-08-07T12:29:09.051Z,1.92
2022-08-07T12:32:01.547Z,3.88
2022-08-07T12:34:37.936Z,3.72
2022-08-07T12:37:28.333Z,2.40
2022-08-07T12:44:03.964Z,1.70
2022-08-07T12:46:42.233Z,2.00
2022-08-07T12:49:51.199Z,3.30
2022-08-07T12:52:33.926Z,1.67
2022-08-07T12:58:18.408Z,1.63
2022-08-07T13:01:01.301Z,1.75
2022-08-07T13:04:02.334Z,4.63
2022-08-07T13:08:12.865Z,1.88
2022-08-07T13:10:52.092Z,2.75
2022-08-07T13:17:01.663Z,6.80
2022-08-07T13:20:21.610Z,2.92
2022-08-07T13:24:01.537Z,2.97
2022-08-07T13:26:30.713Z,3.95
2022-08-07T13:29:37.496Z,4.78
2022-08-07T14:10:23.097Z,3.65
2022-08-07T14:13:05.675Z,4.10
2022-08-07T14:15:51.905Z,2.03
2022-08-07T14:18:30.722Z,4.03
2022-08-07T14:21:11.849Z,2.70
2022-08-07T14:24:00.109Z,2.17
2022-08-07T14:26:40.583Z,2.47
2022-08-07T14:30:06.395Z,7.97
2022-08-07T14:32:05.960Z,3.10
2022-08-07T14:34:45.631Z,3.30
2022-08-07T14:37:19.138Z,7.93
2022-08-07T14:41:00.869Z,3.78
2022-08-07T14:43:58.385Z,3.25
2022-08-07T14:49:55.643Z,6.30
2022-08-07T14:52:10.611Z,3.50
2022-08-07T14:54:42.181Z,5.28
2022-08-07T14:57:19.487Z,2.70
2022-08-07T15:00:05.466Z,2.22
2022-08-07T15:02:39.648Z,2.28
2022-08-07T15:07:59.534Z,2.55
2022-08-07T15:10:30.032Z,4.15
2022-08-07T15:13:01.158Z,3.22
2022-08-07T15:15:40.683Z,2.13
2022-08-07T15:18:40.197Z,3.10
2022-08-07T15:21:58.428Z,2.20
2022-08-07T15:25:13.906Z,3.00
2022-08-07T15:27:18.236Z,2.40
2022-08-07T15:30:08.644Z,2.13
2022-08-07T15:33:01.269Z,3.97
2022-08-07T15:36:01.208Z,3.95
2022-08-07T15:38:51.304Z,3.53
2022-08-07T15:42:42.466Z,2.88
2022-08-07T15:44:51.896Z,3.47
2022-08-07T15:47:21.666Z,4.43
2022-08-07T15:51:01.617Z,2.50
2022-08-07T15:53:51.589Z,3.33
2022-08-07T15:56:24.099Z,4.60
2022-08-07T15:59:01.974Z,5.20
2022-08-07T16:02:03.108Z,3.53
2022-08-07T16:05:15.766Z,2.95
2022-08-07T16:08:31.290Z,5.03
2022-08-07T16:10:48.638Z,4.47
2022-08-07T16:13:39.572Z,3.42
2022-08-07T16:16:47.790Z,6.75
2022-08-07T16:19:42.883Z,8.40
2022-08-07T16:23:52.987Z,5.90
2022-08-07T16:26:30.699Z,6.25
2022-08-07T16:30:09.137Z,5.40
2022-08-07T16:32:58.435Z,8.30
2022-08-07T16:35:59.049Z,6.88
2022-08-07T16:39:01.181Z,7.38
2022-08-07T16:41:41.509Z,7.60
2022-08-07T16:45:04.080Z,9.93
2022-08-07T16:50:41.715Z,6.90
2022-08-07T16:56:26.503Z,8.88
2022-08-07T16:59:17.476Z,11.07
2022-08-07T17:01:46.626Z,10.55
2022-08-07T17:04:50.904Z,10.23
2022-08-07T17:07:51.435Z,11.10
2022-08-07T17:10:54.288Z,10.15
2022-08-07T17:14:18.388Z,13.07
2022-08-07T17:16:56.901Z,15.82
2022-08-07T17:20:02.251Z,11.25
2022-08-07T17:22:28.924Z,14.05
2022-08-07T17:25:15.068Z,13.15
2022-08-07T17:28:14.528Z,9.82
2022-08-07T17:30:59.327Z,10.95
2022-08-07T17:34:09.924Z,30.90
2022-08-07T17:36:26.259Z,26.85
2022-08-07T17:39:10.591Z,18.05
2022-08-07T17:42:03.808Z,16.80
2022-08-07T17:44:58.396Z,14.75
2022-08-07T17:47:42.832Z,16.15
2022-08-07T17:50:19.513Z,13.02
2022-08-07T17:53:07.321Z,12.40
2022-08-07T17:56:06.250Z,19.88
2022-08-07T17:59:04.361Z,15.68
2022-08-07T18:05:20.836Z,12.32
2022-08-07T18:08:24.702Z,14.85
2022-08-07T18:12:07.797Z,11.00
2022-08-07T18:14:02.826Z,16.55
2022-08-07T18:16:35.651Z,15.02
2022-08-07T18:21:03.958Z,19.75
2022-08-07T18:22:39.851Z,19.20
2022-08-07T18:25:24.070Z,19.17
2022-08-07T18:28:34.292Z,15.52
2022-08-07T18:31:24.708Z,14.18
2022-08-07T18:35:01.458Z,10.68
2022-08-07T18:41:45.397Z,8.77
2022-08-07T18:48:09.871Z,8.73
2022-08-07T18:50:58.621Z,15.88
2022-08-07T18:53:44.572Z,9.73
2022-08-07T18:56:38.137Z,7.65
2022-08-07T19:03:15.993Z,9.88
2022-08-07T19:06:04.959Z,9.25
2022-08-07T19:08:56.497Z,6.40
2022-08-07T19:12:03.914Z,7.15
2022-08-07T19:14:51.192Z,6.93
2022-08-07T19:17:55.742Z,6.85
2022-08-07T19:21:09.260Z,10.93
2022-08-07T19:23:57.510Z,6.20
2022-08-07T19:28:28.677Z,6.30
2022-08-07T19:31:04.037Z,9.50
2022-08-07T19:35:54.655Z,10.10
2022-08-07T19:38:29.780Z,8.82
2022-08-07T19:41:01.819Z,10.68
2022-08-07T19:43:43.956Z,9.82
2022-08-07T19:46:37.589Z,8.23
2022-08-07T19:49:57.396Z,6.05
2022-08-07T19:52:28.171Z,11.18
2022-08-07T19:55:05.112Z,7.57
2022-08-07T19:58:01.619Z,8.43
2022-08-07T20:00:38.809Z,6.25
2022-08-07T20:03:35.155Z,9.90
2022-08-07T20:06:30.849Z,9.05
2022-08-07T20:09:02.961Z,10.38
2022-08-07T20:12:01.517Z,10.80
2022-08-07T20:14:33.342Z,8.88
2022-08-07T20:17:13.984Z,12.15
2022-08-07T20:19:48.025Z,10.32
2022-08-07T20:22:33.936Z,11.82
2022-08-07T20:25:19.321Z,7.93
2022-08-07T20:27:58.463Z,9.93
2022-08-07T20:30:36.697Z,12.30
2022-08-07T20:33:08.897Z,10.88
2022-08-07T20:35:51.886Z,13.27
2022-08-07T20:38:32.930Z,9.82
2022-08-07T20:41:08.113Z,9.07
2022-08-07T20:43:47.818Z,8.25
2022-08-07T20:46:28.097Z,13.35
2022-08-07T20:49:59.364Z,8.70
2022-08-07T20:51:51.162Z,15.18
2022-08-07T20:54:29.368Z,13.60
2022-08-07T20:57:05.043Z,9.10
2022-08-07T21:00:07.390Z,11.30
2022-08-07T21:02:53.890Z,10.40
2022-08-07T21:05:42.774Z,10.45
2022-08-07T21:08:37.986Z,23.63
2022-08-07T21:11:22.097Z,12.73
2022-08-07T21:14:32.719Z,19.35
2022-08-07T21:18:06.533Z,12.35
2022-08-07T21:20:09.891Z,12.35
2022-08-07T21:22:51.288Z,12.57
2022-08-07T21:26:09.625Z,9.68
2022-08-07T21:29:01.005Z,10.07
2022-08-07T21:32:42.439Z,10.23
2022-08-07T21:35:11.577Z,9.68
2022-08-07T21:38:09.609Z,8.82
2022-08-07T21:40:53.097Z,9.13
2022-08-07T21:43:47.167Z,11.50
2022-08-07T21:47:27.314Z,10.43
2022-08-07T21:50:14.596Z,9.60
2022-08-07T21:53:07.653Z,9.80
2022-08-07T21:55:51.038Z,12.18
2022-08-07T21:58:43.928Z,10.45
2022-08-07T22:02:07.462Z,8.98
2022-08-07T22:04:24.131Z,12.82
2022-08-07T22:07:13.123Z,8.82
2022-08-07T22:09:54.467Z,8.95
2022-08-07T22:12:31.510Z,9.80
2022-08-07T22:16:40.947Z,9.82
2022-08-07T22:18:06.976Z,13.68
2022-08-07T22:20:42.753Z,11.35
2022-08-07T22:23:51.871Z,9.90
2022-08-07T22:26:27.712Z,13.02
2022-08-07T22:29:17.822Z,11.57
2022-08-07T22:32:00.114Z,9.60
2022-08-07T22:34:49.702Z,10.02
2022-08-07T22:38:03.581Z,11.52
2022-08-07T22:40:52.613Z,14.38
2022-08-07T22:43:34.510Z,11.50
2022-08-07T22:46:40.921Z,10.73
2022-08-07T22:49:37.727Z,11.50
2022-08-07T22:52:36.647Z,15.40
2022-08-07T22:55:44.890Z,10.43
2022-08-07T22:58:41.143Z,11.30
2022-08-07T23:01:49.742Z,10.38
2022-08-07T23:04:30.884Z,12.68
2022-08-07T23:07:39.748Z,14.05
2022-08-07T23:10:45.464Z,13.00
2022-08-07T23:13:49.131Z,12.90
2022-08-07T23:17:01.739Z,13.80
2022-08-07T23:20:15.183Z,14.63
2022-08-07T23:22:56.739Z,12.45
2022-08-07T23:25:36.149Z,18.35
2022-08-07T23:28:20.651Z,16.02
2022-08-07T23:32:48.697Z,12.27
2022-08-07T23:34:52.804Z,11.63
2022-08-07T23:37:22.946Z,19.75
2022-08-07T23:40:13.158Z,15.98
2022-08-07T23:42:54.068Z,14.55
2022-08-07T23:46:01.357Z,14.20
2022-08-07T23:52:59.791Z,11.57
2022-08-07T23:54:46.519Z,11.13
2022-08-07T23:57:34.800Z,12.95
